createdAt,value
2024-01-06T00:00:04.039Z,0.82
2024-01-06T00:00:33.605Z,0.90
2024-01-06T00:00:55.443Z,0.77
2024-01-06T00:01:17.747Z,0.85
2024-01-06T00:01:40.454Z,1.15
2024-01-06T00:02:02.880Z,1.00
2024-01-06T00:02:24.583Z,0.80
2024-01-06T00:02:46.339Z,0.82
2024-01-06T00:03:09.477Z,1.00
2024-01-06T00:03:32.256Z,0.80
2024-01-06T00:03:54.119Z,0.90
2024-01-06T00:04:15.891Z,1.20
2024-01-06T00:04:37.620Z,0.80
2024-01-06T00:04:59.459Z,0.60
2024-01-06T00:05:22.114Z,0.85
2024-01-06T00:05:43.805Z,0.93
2024-01-06T00:06:06.431Z,0.95
2024-01-06T00:06:28.122Z,1.05
2024-01-06T00:06:49.798Z,1.15
2024-01-06T00:07:11.677Z,0.93
2024-01-06T00:07:34.316Z,0.80
2024-01-06T00:07:55.961Z,1.00
2024-01-06T00:08:17.584Z,0.77
2024-01-06T00:08:39.209Z,0.90
2024-01-06T00:09:00.803Z,1.50
2024-01-06T00:09:23.483Z,1.20
2024-01-06T00:09:45.210Z,0.95
2024-01-06T00:10:07.805Z,1.02
2024-01-06T00:10:29.606Z,0.90
2024-01-06T00:10:51.228Z,1.02
2024-01-06T00:11:12.961Z,1.13
2024-01-06T00:11:35.555Z,1.25
2024-01-06T00:11:57.266Z,1.10
2024-01-06T00:12:19.635Z,0.80
2024-01-06T00:12:41.296Z,0.80
2024-01-06T00:13:03.066Z,0.80
2024-01-06T00:13:24.835Z,1.00
2024-01-06T00:13:47.424Z,0.90
2024-01-06T00:14:09.132Z,0.90
2024-01-06T00:14:30.743Z,1.10
2024-01-06T00:14:52.356Z,1.02
2024-01-06T00:15:14.161Z,1.08
2024-01-06T00:15:35.861Z,0.82
2024-01-06T00:15:58.866Z,0.85
2024-01-06T00:16:21.407Z,1.00
2024-01-06T00:16:43.069Z,1.10
2024-01-06T00:17:04.903Z,1.02
2024-01-06T00:17:26.523Z,1.00
2024-01-06T00:17:48.276Z,1.17
2024-01-06T00:18:12.336Z,1.00
2024-01-06T00:18:34.193Z,0.95
2024-01-06T00:18:56.001Z,1.02
2024-01-06T00:19:18.703Z,0.68
2024-01-06T00:19:40.477Z,1.00
2024-01-06T00:20:03.634Z,0.98
2024-01-06T00:20:25.544Z,0.90
2024-01-06T00:20:47.165Z,1.00
2024-01-06T00:21:09.408Z,0.70
2024-01-06T00:21:31.056Z,0.80
2024-01-06T00:21:53.069Z,1.38
2024-01-06T00:22:15.693Z,1.25
2024-01-06T00:22:37.663Z,0.57
2024-01-06T00:22:59.996Z,0.85
2024-01-06T00:23:21.671Z,1.20
2024-01-06T00:23:43.394Z,1.10
2024-01-06T00:24:06.669Z,1.00
2024-01-06T00:24:28.658Z,1.00
2024-01-06T00:24:50.432Z,0.90
2024-01-06T00:25:12.161Z,0.95
2024-01-06T00:25:33.761Z,0.98
2024-01-06T00:25:56.384Z,0.80
2024-01-06T00:26:18.005Z,1.00
2024-01-06T00:26:39.675Z,1.00
2024-01-06T00:27:01.340Z,1.17
2024-01-06T00:27:23.053Z,1.00
2024-01-06T00:27:45.789Z,0.82
2024-01-06T00:28:07.515Z,1.20
2024-01-06T00:28:29.328Z,1.00
2024-01-06T00:28:51.095Z,0.73
2024-01-06T00:29:12.690Z,0.77
2024-01-06T00:29:34.320Z,0.98
2024-01-06T00:29:57.065Z,1.10
2024-01-06T00:30:18.818Z,1.10
2024-01-06T00:30:40.555Z,1.10
2024-01-06T00:31:02.393Z,1.10
2024-01-06T00:31:24.236Z,1.45
2024-01-06T00:31:46.990Z,1.20
2024-01-06T00:32:09.017Z,1.10
2024-01-06T00:32:31.038Z,1.30
2024-01-06T00:32:52.708Z,1.00
2024-01-06T00:33:15.745Z,1.20
2024-01-06T00:33:38.559Z,1.20
2024-01-06T00:34:00.412Z,0.90
2024-01-06T00:34:22.349Z,0.90
2024-01-06T00:34:44.118Z,1.30
2024-01-06T00:35:06.473Z,1.40
2024-01-06T00:35:28.107Z,1.20
2024-01-06T00:35:50.685Z,0.93
2024-01-06T00:36:12.455Z,0.90
2024-01-06T00:36:34.212Z,1.13
2024-01-06T00:36:55.953Z,1.27
2024-01-06T00:37:17.628Z,1.13
2024-01-06T00:37:39.329Z,1.20
2024-01-06T00:38:02.383Z,1.40
2024-01-06T00:38:24.020Z,0.90
2024-01-06T00:38:45.773Z,0.80
2024-01-06T00:39:07.438Z,1.00
2024-01-06T00:39:29.147Z,1.13
2024-01-06T00:39:51.642Z,1.20
2024-01-06T00:40:15.072Z,1.30
2024-01-06T00:40:36.751Z,1.20
2024-01-06T00:40:58.362Z,1.38
2024-01-06T00:41:19.980Z,1.48
2024-01-06T00:41:41.613Z,1.15
2024-01-06T00:42:03.475Z,1.50
2024-01-06T00:42:26.140Z,1.20
2024-01-06T00:42:47.890Z,1.40
2024-01-06T00:43:09.635Z,1.00
2024-01-06T00:43:31.267Z,0.98
2024-01-06T00:43:52.941Z,1.15
2024-01-06T00:44:14.580Z,1.20
2024-01-06T00:44:38.525Z,1.20
2024-01-06T00:45:00.140Z,1.10
2024-01-06T00:45:22.078Z,1.10
2024-01-06T00:45:43.788Z,0.82
2024-01-06T00:46:05.473Z,0.95
2024-01-06T00:46:28.103Z,1.15
2024-01-06T00:46:49.745Z,1.30
2024-01-06T00:47:11.342Z,1.02
2024-01-06T00:47:33.019Z,1.02
2024-01-06T00:47:54.848Z,1.13
2024-01-06T00:48:19.020Z,1.10
2024-01-06T00:48:40.885Z,1.10
2024-01-06T00:49:02.909Z,1.00
2024-01-06T00:49:24.681Z,0.82
2024-01-06T00:49:46.556Z,0.80
2024-01-06T00:50:10.127Z,1.35
2024-01-06T00:50:31.838Z,1.13
2024-01-06T00:50:53.511Z,1.33
2024-01-06T00:51:19.004Z,1.40
2024-01-06T00:51:42.657Z,1.05
2024-01-06T00:52:10.263Z,1.13
2024-01-06T00:52:39.861Z,1.00
2024-01-06T00:53:05.190Z,1.25
2024-01-06T00:53:31.272Z,1.20
2024-01-06T00:53:55.075Z,1.10
2024-01-06T00:56:22.794Z,1.70
2024-01-06T00:56:46.086Z,1.10
2024-01-06T00:57:09.595Z,1.15
2024-01-06T00:57:34.267Z,1.17
2024-01-06T00:57:59.703Z,1.10
2024-01-06T00:58:22.012Z,0.90
2024-01-06T00:58:45.159Z,0.93
2024-01-06T00:59:09.271Z,0.82
2024-01-06T00:59:37.216Z,1.20
2024-01-06T01:00:04.391Z,1.30
2024-01-06T01:01:21.743Z,1.00
2024-01-06T01:01:44.457Z,1.00
2024-01-06T01:02:06.107Z,1.00
2024-01-06T01:02:27.721Z,1.20
2024-01-06T01:02:49.409Z,1.77
2024-01-06T01:03:11.090Z,1.50
2024-01-06T01:03:35.149Z,1.13
2024-01-06T01:03:56.926Z,1.40
2024-01-06T01:04:18.742Z,1.30
2024-01-06T01:04:40.545Z,1.17
2024-01-06T01:05:03.080Z,1.15
2024-01-06T01:05:25.841Z,1.38
2024-01-06T01:05:47.552Z,1.00
2024-01-06T01:06:09.536Z,0.90
2024-01-06T01:06:31.235Z,1.35
2024-01-06T01:06:53.003Z,1.13
2024-01-06T01:07:14.668Z,1.10
2024-01-06T01:07:37.663Z,1.20
2024-01-06T01:07:59.306Z,0.98
2024-01-06T01:08:20.942Z,1.08
2024-01-06T01:08:42.568Z,1.35
2024-01-06T01:09:05.297Z,1.10
2024-01-06T01:09:27.109Z,0.95
2024-01-06T01:09:49.849Z,1.25
2024-01-06T01:10:11.732Z,1.17
2024-01-06T01:10:33.389Z,1.10
2024-01-06T01:10:55.004Z,1.10
2024-01-06T01:11:16.905Z,1.23
2024-01-06T01:11:38.618Z,0.95
2024-01-06T01:12:01.253Z,1.30
2024-01-06T01:12:22.936Z,1.08
2024-01-06T01:12:44.614Z,1.33
2024-01-06T01:13:06.329Z,1.08
2024-01-06T01:13:27.998Z,1.42
2024-01-06T01:13:50.668Z,1.35
2024-01-06T01:14:12.344Z,1.40
2024-01-06T01:14:33.980Z,1.27
2024-01-06T01:14:55.727Z,1.35
2024-01-06T01:15:17.496Z,1.40
2024-01-06T01:15:40.288Z,1.10
2024-01-06T01:16:02.011Z,1.15
2024-01-06T01:16:23.650Z,1.10
2024-01-06T01:16:45.291Z,1.10
2024-01-06T01:17:07.280Z,0.80
2024-01-06T01:17:29.954Z,0.80
2024-01-06T01:17:51.710Z,0.70
2024-01-06T01:18:14.026Z,1.10
2024-01-06T01:18:37.292Z,0.85
2024-01-06T01:19:00.139Z,1.00
2024-01-06T01:19:21.955Z,1.10
2024-01-06T01:19:43.754Z,1.05
2024-01-06T01:20:42.838Z,1.00
2024-01-06T01:21:04.581Z,1.10
2024-01-06T01:21:26.309Z,1.10
2024-01-06T01:21:47.970Z,1.00
2024-01-06T01:22:09.711Z,1.02
2024-01-06T01:22:32.292Z,0.98
2024-01-06T01:22:53.962Z,1.25
2024-01-06T01:23:15.589Z,1.17
2024-01-06T01:23:37.514Z,1.10
2024-01-06T01:23:59.117Z,1.10
2024-01-06T01:24:21.762Z,1.25
2024-01-06T01:24:43.494Z,0.82
2024-01-06T01:25:08.575Z,1.10
2024-01-06T01:25:30.190Z,0.98
2024-01-06T01:25:52.894Z,1.05
2024-01-06T01:26:14.643Z,1.20
2024-01-06T01:26:36.269Z,1.10
2024-01-06T01:26:57.913Z,0.93
2024-01-06T01:27:19.595Z,1.10
2024-01-06T01:27:42.301Z,0.88
2024-01-06T01:28:04.569Z,0.93
2024-01-06T01:28:26.288Z,1.00
2024-01-06T01:28:47.949Z,1.05
2024-01-06T01:29:09.596Z,0.80
2024-01-06T01:29:32.240Z,1.00
2024-01-06T01:29:55.892Z,1.38
2024-01-06T01:30:17.780Z,1.10
2024-01-06T01:30:39.585Z,1.20
2024-01-06T01:31:01.377Z,1.23
2024-01-06T01:31:23.221Z,1.10
2024-01-06T01:31:46.096Z,1.17
2024-01-06T01:32:07.920Z,1.05
2024-01-06T01:32:29.726Z,1.00
2024-01-06T01:32:51.606Z,1.17
2024-01-06T01:33:13.638Z,1.40
2024-01-06T01:33:37.760Z,1.45
2024-01-06T01:33:59.673Z,1.08
2024-01-06T01:34:21.552Z,0.70
2024-01-06T01:34:43.431Z,0.90
2024-01-06T01:35:06.156Z,0.88
2024-01-06T01:35:28.782Z,0.70
2024-01-06T01:35:50.429Z,0.80
2024-01-06T01:36:12.062Z,0.80
2024-01-06T01:36:33.756Z,1.00
2024-01-06T01:36:55.400Z,0.90
2024-01-06T01:37:17.092Z,0.90
2024-01-06T01:37:39.733Z,1.17
2024-01-06T01:38:01.391Z,0.98
2024-01-06T01:38:23.030Z,0.90
2024-01-06T01:38:44.636Z,0.90
2024-01-06T01:39:06.285Z,0.80
2024-01-06T01:39:29.013Z,1.10
2024-01-06T01:39:50.666Z,1.20
2024-01-06T01:40:12.556Z,1.30
2024-01-06T01:40:34.676Z,1.30
2024-01-06T01:40:56.316Z,1.35
2024-01-06T01:41:17.956Z,1.30
2024-01-06T01:41:42.441Z,1.10
2024-01-06T01:42:04.472Z,1.45
2024-01-06T01:42:26.138Z,1.27
2024-01-06T01:42:47.817Z,1.10
2024-01-06T01:43:17.222Z,0.82
2024-01-06T01:43:41.296Z,1.00
2024-01-06T01:44:03.031Z,1.20
2024-01-06T01:44:24.675Z,1.33
2024-01-06T01:44:46.301Z,1.10
2024-01-06T01:45:10.522Z,0.93
2024-01-06T01:45:33.389Z,1.20
2024-01-06T01:45:56.670Z,0.90
2024-01-06T01:46:18.386Z,0.90
2024-01-06T01:46:41.163Z,0.95
2024-01-06T01:47:05.655Z,0.93
2024-01-06T01:47:27.861Z,0.80
2024-01-06T01:47:49.758Z,0.80
2024-01-06T01:48:12.623Z,0.90
2024-01-06T01:48:35.717Z,1.00
2024-01-06T01:49:01.122Z,0.90
2024-01-06T01:49:23.535Z,1.20
2024-01-06T01:49:46.714Z,1.17
2024-01-06T01:50:10.686Z,0.82
2024-01-06T01:50:32.440Z,0.80
2024-01-06T01:50:55.168Z,1.23
2024-01-06T01:51:17.017Z,1.13
2024-01-06T01:51:39.543Z,0.80
2024-01-06T01:52:01.538Z,1.00
2024-01-06T01:52:24.522Z,1.00
2024-01-06T01:52:46.157Z,0.98
2024-01-06T01:53:07.934Z,1.00
2024-01-06T01:53:30.705Z,1.05
2024-01-06T01:53:52.391Z,1.10
2024-01-06T01:54:15.504Z,1.02
2024-01-06T01:54:37.271Z,0.90
2024-01-06T01:54:58.950Z,1.27
2024-01-06T01:55:20.744Z,0.80
2024-01-06T01:55:44.804Z,1.08
2024-01-06T01:56:06.990Z,1.23
2024-01-06T01:56:34.903Z,1.25
2024-01-06T01:56:56.809Z,1.20
2024-01-06T01:57:18.842Z,1.10
2024-01-06T01:57:40.799Z,1.17
2024-01-06T01:58:02.525Z,0.93
2024-01-06T01:58:25.699Z,1.00
2024-01-06T01:58:47.865Z,1.10
2024-01-06T01:59:12.288Z,0.98
2024-01-06T01:59:34.878Z,1.20
2024-01-06T01:59:56.617Z,1.10
2024-01-06T02:00:19.712Z,1.00
2024-01-06T02:00:41.506Z,0.93
2024-01-06T02:01:03.346Z,0.98
2024-01-06T02:01:25.261Z,1.20
2024-01-06T02:01:47.361Z,1.13
2024-01-06T02:12:28.506Z,1.10
2024-01-06T02:12:52.984Z,1.10
2024-01-06T02:13:14.891Z,1.25
2024-01-06T02:13:37.776Z,1.23
2024-01-06T02:14:00.388Z,1.35
2024-01-06T02:14:22.036Z,1.13
2024-01-06T02:14:44.248Z,0.98
2024-01-06T02:15:06.834Z,1.10
2024-01-06T02:15:28.501Z,1.00
2024-01-06T02:15:50.214Z,1.38
2024-01-06T02:16:12.885Z,1.10
2024-01-06T02:16:34.541Z,1.20
2024-01-06T02:16:56.157Z,1.08
2024-01-06T02:17:17.849Z,1.20
2024-01-06T02:17:40.993Z,1.40
2024-01-06T02:18:02.870Z,1.08
2024-01-06T02:18:25.597Z,0.90
2024-01-06T02:18:47.793Z,1.00
2024-01-06T02:19:12.337Z,0.90
2024-01-06T02:19:34.257Z,0.80
2024-01-06T02:19:57.585Z,1.10
2024-01-06T02:20:20.939Z,1.10
2024-01-06T02:20:45.562Z,0.90
2024-01-06T02:21:07.818Z,0.80
2024-01-06T02:21:32.568Z,0.95
2024-01-06T02:21:55.783Z,1.25
2024-01-06T02:22:17.472Z,1.33
2024-01-06T02:22:40.203Z,1.23
2024-01-06T02:23:02.153Z,1.08
2024-01-06T02:23:23.819Z,0.80
2024-01-06T02:23:45.455Z,1.10
2024-01-06T02:24:07.273Z,1.08
2024-01-06T02:24:28.931Z,1.10
2024-01-06T02:24:51.599Z,0.90
2024-01-06T02:25:13.595Z,0.82
2024-01-06T02:25:36.251Z,1.10
2024-01-06T02:25:58.010Z,1.25
2024-01-06T02:26:20.978Z,0.98
2024-01-06T02:26:42.701Z,1.17
2024-01-06T02:27:05.115Z,1.15
2024-01-06T02:27:27.162Z,1.23
2024-01-06T02:27:48.919Z,0.82
2024-01-06T02:28:10.569Z,1.15
2024-01-06T02:28:33.178Z,1.20
2024-01-06T02:28:54.758Z,0.90
2024-01-06T02:29:16.393Z,1.13
2024-01-06T02:29:38.016Z,1.15
2024-01-06T02:29:59.669Z,1.15
2024-01-06T02:30:21.490Z,1.00
2024-01-06T02:30:44.209Z,0.82
2024-01-06T02:31:05.984Z,1.02
2024-01-06T02:31:27.777Z,1.17
2024-01-06T02:31:49.636Z,1.13
2024-01-06T02:32:11.298Z,1.23
2024-01-06T02:32:33.935Z,1.42
2024-01-06T02:32:55.763Z,1.20
2024-01-06T02:33:18.146Z,1.50
2024-01-06T02:33:40.104Z,1.30
2024-01-06T02:34:01.919Z,0.80
2024-01-06T02:34:24.680Z,0.90
2024-01-06T02:34:46.436Z,1.00
2024-01-06T02:35:09.022Z,1.08
2024-01-06T02:35:30.646Z,1.00
2024-01-06T02:35:52.304Z,1.15
2024-01-06T02:36:13.918Z,1.05
2024-01-06T02:36:36.549Z,1.10
2024-01-06T02:36:59.519Z,1.00
2024-01-06T02:37:21.170Z,1.00
2024-01-06T02:37:42.834Z,1.05
2024-01-06T02:38:04.789Z,0.90
2024-01-06T02:38:26.409Z,1.00
2024-01-06T02:38:49.089Z,0.77
2024-01-06T02:39:10.935Z,1.00
2024-01-06T02:39:32.658Z,0.90
2024-01-06T02:39:54.396Z,1.10
2024-01-06T02:40:16.019Z,1.00
2024-01-06T02:40:38.662Z,1.15
2024-01-06T02:41:00.276Z,1.40
2024-01-06T02:41:21.952Z,1.10
2024-01-06T02:41:43.599Z,1.25
2024-01-06T02:42:06.125Z,1.33
2024-01-06T02:42:27.881Z,0.93
2024-01-06T02:42:50.728Z,0.90
2024-01-06T02:43:12.605Z,1.17
2024-01-06T02:43:34.217Z,1.00
2024-01-06T02:43:56.558Z,1.00
2024-01-06T02:44:18.191Z,1.00
2024-01-06T02:44:39.789Z,1.10
2024-01-06T02:45:02.362Z,1.23
2024-01-06T02:45:24.028Z,1.00
2024-01-06T02:45:47.730Z,1.02
2024-01-06T02:46:09.371Z,1.35
2024-01-06T02:46:31.985Z,1.10
2024-01-06T02:46:55.302Z,0.93
2024-01-06T02:47:16.910Z,1.20
2024-01-06T02:47:38.700Z,1.63
2024-01-06T02:48:00.566Z,1.00
2024-01-06T02:48:23.393Z,1.20
2024-01-06T02:48:45.182Z,1.25
2024-01-06T02:49:07.159Z,0.90
2024-01-06T02:49:28.981Z,1.10
2024-01-06T02:49:50.683Z,0.90
2024-01-06T02:50:13.663Z,0.90
2024-01-06T02:50:35.286Z,0.90
2024-01-06T02:50:56.901Z,0.93
2024-01-06T02:51:18.581Z,1.10
2024-01-06T02:51:40.298Z,1.00
2024-01-06T02:52:03.441Z,1.20
2024-01-06T02:52:26.046Z,1.23
2024-01-06T02:52:48.143Z,1.10
2024-01-06T02:53:10.799Z,0.98
2024-01-06T02:53:32.480Z,1.45
2024-01-06T03:04:17.486Z,0.95
2024-01-06T03:04:40.188Z,1.00
2024-01-06T03:05:01.940Z,1.00
2024-01-06T03:05:23.686Z,0.93
2024-01-06T03:05:45.488Z,1.00
2024-01-06T03:06:30.772Z,0.90
2024-01-06T03:06:54.596Z,1.20
2024-01-06T03:07:17.771Z,0.88
2024-01-06T03:07:39.367Z,1.00
2024-01-06T03:08:00.990Z,1.05
2024-01-06T03:08:23.768Z,1.08
2024-01-06T03:08:46.351Z,1.23
2024-01-06T03:09:08.602Z,1.45
2024-01-06T03:09:30.352Z,1.10
2024-01-06T03:09:51.960Z,0.90
2024-01-06T03:10:13.675Z,0.95
2024-01-06T03:10:35.356Z,1.10
2024-01-06T03:10:58.011Z,1.10
2024-01-06T03:11:19.704Z,1.25
2024-01-06T03:11:41.419Z,1.10
2024-01-06T03:12:03.325Z,1.17
2024-01-06T03:12:25.155Z,1.10
2024-01-06T03:12:47.022Z,1.20
2024-01-06T03:13:09.743Z,1.10
2024-01-06T03:13:31.461Z,1.10
2024-01-06T03:13:53.090Z,0.90
2024-01-06T03:14:14.811Z,0.90
2024-01-06T03:14:36.618Z,1.30
2024-01-06T03:14:58.365Z,1.30
2024-01-06T03:15:21.017Z,1.50
2024-01-06T03:15:42.808Z,1.15
2024-01-06T03:16:05.863Z,1.02
2024-01-06T03:16:27.504Z,1.00
2024-01-06T03:16:49.110Z,1.10
2024-01-06T03:17:11.667Z,0.90
2024-01-06T03:17:34.526Z,0.90
2024-01-06T03:17:56.264Z,1.30
2024-01-06T03:18:18.062Z,1.33
2024-01-06T03:18:39.983Z,1.30
2024-01-06T03:19:01.900Z,1.25
2024-01-06T03:19:27.139Z,1.00
2024-01-06T03:19:49.041Z,0.80
2024-01-06T03:20:12.264Z,1.10
2024-01-06T03:20:33.891Z,1.17
2024-01-06T03:20:55.501Z,1.40
2024-01-06T03:21:20.702Z,1.35
2024-01-06T03:21:42.336Z,1.38
2024-01-06T03:22:04.302Z,0.98
2024-01-06T03:22:28.278Z,1.40
2024-01-06T03:22:50.500Z,1.08
2024-01-06T03:23:12.107Z,1.02
2024-01-06T03:23:34.673Z,0.90
2024-01-06T03:23:56.459Z,0.82
2024-01-06T03:24:19.078Z,0.80
2024-01-06T03:24:41.356Z,1.10
2024-01-06T03:25:03.756Z,1.17
2024-01-06T03:25:25.333Z,1.20
2024-01-06T03:25:46.983Z,1.00
2024-01-06T03:26:08.728Z,1.10
2024-01-06T03:26:31.373Z,1.33
2024-01-06T03:26:53.095Z,1.20
2024-01-06T03:27:15.152Z,1.13
2024-01-06T03:27:36.853Z,1.08
2024-01-06T03:27:59.515Z,1.20
2024-01-06T03:28:21.131Z,0.98
2024-01-06T03:28:42.766Z,1.10
2024-01-06T03:29:04.730Z,1.10
2024-01-06T03:29:26.421Z,1.10
2024-01-06T03:29:48.081Z,1.23
2024-01-06T03:30:11.875Z,1.10
2024-01-06T03:30:33.779Z,1.13
2024-01-06T03:30:55.607Z,1.27
2024-01-06T03:31:17.510Z,1.33
2024-01-06T03:31:42.687Z,1.30
2024-01-06T03:32:07.653Z,1.48
2024-01-06T03:32:29.643Z,1.40
2024-01-06T03:32:51.437Z,1.05
2024-01-06T03:33:13.638Z,1.20
2024-01-06T03:33:35.460Z,1.30
2024-01-06T03:33:58.258Z,1.13
2024-01-06T03:34:20.035Z,0.93
2024-01-06T03:34:42.347Z,1.05
2024-01-06T03:35:04.648Z,1.20
2024-01-06T03:35:27.308Z,1.10
2024-01-06T03:35:48.934Z,1.40
2024-01-06T03:36:10.933Z,1.25
2024-01-06T03:36:32.588Z,1.27
2024-01-06T03:36:54.362Z,1.40
2024-01-06T03:37:16.297Z,1.00
2024-01-06T03:37:40.267Z,1.05
2024-01-06T03:38:01.916Z,1.60
2024-01-06T03:38:23.599Z,1.30
2024-01-06T03:38:45.262Z,1.17
2024-01-06T03:39:07.018Z,1.20
2024-01-06T03:39:28.739Z,1.08
2024-01-06T03:39:51.407Z,1.15
2024-01-06T03:40:13.719Z,1.00
2024-01-06T03:40:35.332Z,1.00
2024-01-06T03:40:57.034Z,1.10
2024-01-06T03:41:18.665Z,1.08
2024-01-06T03:41:40.356Z,1.52
2024-01-06T03:42:02.040Z,1.15
2024-01-06T03:42:24.663Z,1.00
2024-01-06T03:42:46.352Z,1.10
2024-01-06T03:43:07.948Z,1.10
2024-01-06T03:43:29.574Z,1.13
2024-01-06T03:43:51.205Z,1.75
2024-01-06T03:44:12.814Z,1.55
2024-01-06T03:44:36.013Z,1.38
2024-01-06T03:44:57.777Z,1.77
2024-01-06T03:45:19.483Z,1.63
2024-01-06T03:45:41.356Z,1.42
2024-01-06T03:46:03.173Z,1.10
2024-01-06T03:46:25.848Z,1.30
2024-01-06T03:46:47.518Z,1.00
2024-01-06T03:47:09.202Z,0.85
2024-01-06T03:47:30.879Z,1.10
2024-01-06T03:47:52.587Z,1.15
2024-01-06T03:48:15.487Z,1.00
2024-01-06T03:48:37.445Z,1.27
2024-01-06T03:48:59.328Z,1.30
2024-01-06T03:49:21.853Z,1.30
2024-01-06T03:49:43.675Z,0.88
2024-01-06T03:50:06.891Z,0.90
2024-01-06T03:50:28.495Z,1.30
2024-01-06T03:50:50.143Z,1.40
2024-01-06T03:51:13.886Z,1.20
2024-01-06T03:51:35.634Z,1.23
2024-01-06T03:51:57.450Z,1.23
2024-01-06T03:52:20.838Z,1.50
2024-01-06T03:52:43.834Z,1.17
2024-01-06T03:53:06.160Z,1.05
2024-01-06T03:53:27.765Z,1.40
2024-01-06T03:53:49.472Z,1.17
2024-01-06T03:54:12.062Z,1.33
2024-01-06T03:54:33.714Z,1.42
2024-01-06T03:54:55.509Z,1.38
2024-01-06T03:55:17.545Z,1.10
2024-01-06T03:55:39.173Z,1.30
2024-01-06T03:56:01.937Z,1.27
2024-01-06T03:56:23.740Z,1.48
2024-01-06T03:56:45.388Z,1.48
2024-01-06T03:57:07.025Z,1.30
2024-01-06T03:57:28.816Z,1.13
2024-01-06T03:57:51.484Z,1.17
2024-01-06T03:58:13.468Z,1.20
2024-01-06T03:58:35.461Z,1.60
2024-01-06T03:58:57.128Z,1.58
2024-01-06T03:59:18.760Z,1.42
2024-01-06T03:59:40.352Z,1.50
2024-01-06T04:00:03.187Z,1.50
2024-01-06T04:00:26.861Z,1.52
2024-01-06T04:00:48.826Z,1.33
2024-01-06T04:01:43.276Z,1.40
2024-01-06T04:02:06.801Z,1.33
2024-01-06T04:02:28.427Z,1.20
2024-01-06T04:02:50.174Z,1.15
2024-01-06T04:03:11.792Z,1.38
2024-01-06T04:03:33.518Z,1.20
2024-01-06T04:03:55.215Z,0.95
2024-01-06T04:04:17.979Z,1.00
2024-01-06T04:04:39.604Z,1.10
2024-01-06T04:05:01.276Z,1.33
2024-01-06T04:05:23.058Z,1.50
2024-01-06T04:05:45.016Z,1.42
2024-01-06T04:06:06.947Z,1.20
2024-01-06T04:06:29.619Z,1.10
2024-01-06T04:06:51.333Z,1.10
2024-01-06T04:07:13.040Z,1.25
2024-01-06T04:07:34.777Z,1.63
2024-01-06T04:07:57.825Z,1.35
2024-01-06T04:08:19.938Z,1.40
2024-01-06T04:08:41.807Z,1.48
2024-01-06T04:09:04.603Z,1.50
2024-01-06T04:09:26.286Z,1.05
2024-01-06T04:09:47.956Z,1.10
2024-01-06T04:10:10.232Z,1.27
2024-01-06T04:10:31.900Z,1.80
2024-01-06T04:10:58.504Z,1.98
2024-01-06T04:11:21.264Z,1.95
2024-01-06T04:11:43.062Z,1.48
2024-01-06T04:12:04.970Z,1.40
2024-01-06T04:12:26.618Z,1.45
2024-01-06T04:12:49.350Z,1.33
2024-01-06T04:13:11.591Z,0.90
2024-01-06T04:13:33.199Z,1.10
2024-01-06T04:13:54.831Z,1.20
2024-01-06T04:14:16.437Z,1.20
2024-01-06T04:14:39.038Z,1.48
2024-01-06T04:15:00.641Z,1.85
2024-01-06T04:15:22.284Z,1.20
2024-01-06T04:15:43.985Z,1.30
2024-01-06T04:16:06.361Z,1.70
2024-01-06T04:16:29.175Z,1.38
2024-01-06T04:16:50.820Z,1.35
2024-01-06T04:17:12.480Z,1.33
2024-01-06T04:17:34.182Z,1.00
2024-01-06T04:17:56.121Z,1.30
2024-01-06T04:18:19.213Z,1.48
2024-01-06T04:18:41.057Z,1.50
2024-01-06T04:19:02.963Z,1.60
2024-01-06T04:19:24.920Z,1.48
2024-01-06T04:19:46.992Z,1.50
2024-01-06T04:20:13.478Z,1.33
2024-01-06T04:20:36.090Z,1.38
2024-01-06T04:20:57.783Z,1.45
2024-01-06T04:21:19.594Z,1.48
2024-01-06T04:21:41.273Z,2.05
2024-01-06T04:22:02.904Z,1.88
2024-01-06T04:22:25.201Z,1.50
2024-01-06T04:22:49.189Z,1.50
2024-01-06T04:23:12.240Z,1.50
2024-01-06T04:23:33.873Z,1.70
2024-01-06T04:23:57.026Z,1.90
2024-01-06T04:24:18.646Z,1.95
2024-01-06T04:24:41.899Z,1.80
2024-01-06T04:25:04.124Z,1.48
2024-01-06T04:25:25.767Z,1.58
2024-01-06T04:25:47.642Z,1.65
2024-01-06T04:26:09.749Z,1.55
2024-01-06T04:26:31.435Z,1.38
2024-01-06T04:26:54.094Z,1.50
2024-01-06T04:27:15.809Z,2.05
2024-01-06T04:27:37.540Z,1.95
2024-01-06T04:28:00.344Z,1.45
2024-01-06T04:28:21.991Z,1.70
2024-01-06T04:28:43.673Z,1.50
2024-01-06T04:29:06.286Z,1.52
2024-01-06T04:29:28.241Z,1.92
2024-01-06T04:29:53.992Z,1.85
2024-01-06T04:30:15.980Z,1.80
2024-01-06T04:30:37.696Z,1.95
2024-01-06T04:31:00.400Z,1.65
2024-01-06T04:31:22.116Z,1.55
2024-01-06T04:31:43.906Z,1.95
2024-01-06T04:32:06.156Z,2.10
2024-01-06T04:32:28.274Z,1.55
2024-01-06T04:32:51.006Z,1.48
2024-01-06T04:33:12.943Z,1.40
2024-01-06T04:33:34.854Z,1.48
2024-01-06T04:33:56.656Z,1.83
2024-01-06T04:34:18.816Z,1.77
2024-01-06T04:34:40.694Z,1.25
2024-01-06T04:35:02.611Z,1.60
2024-01-06T04:35:27.315Z,1.90
2024-01-06T04:35:48.945Z,1.73
2024-01-06T04:36:11.592Z,1.27
2024-01-06T04:36:33.319Z,1.80
2024-01-06T04:36:55.526Z,1.52
2024-01-06T04:37:17.201Z,1.60
2024-01-06T04:37:38.858Z,1.35
2024-01-06T04:38:01.431Z,1.73
2024-01-06T04:38:24.704Z,1.48
2024-01-06T04:38:46.271Z,1.73
2024-01-06T04:39:07.954Z,1.60
2024-01-06T04:39:30.635Z,1.75
2024-01-06T04:39:52.343Z,1.95
2024-01-06T04:40:14.203Z,1.98
2024-01-06T04:40:36.274Z,2.10
2024-01-06T04:40:57.936Z,2.10
2024-01-06T04:41:22.652Z,1.98
2024-01-06T04:41:44.564Z,1.85
2024-01-06T04:42:06.697Z,2.38
2024-01-06T04:42:28.387Z,2.08
2024-01-06T04:42:50.183Z,1.80
2024-01-06T04:43:11.975Z,2.15
2024-01-06T04:43:34.545Z,1.60
2024-01-06T04:43:56.452Z,1.98
2024-01-06T04:44:21.802Z,1.95
2024-01-06T04:44:43.388Z,2.00
2024-01-06T04:45:05.873Z,2.67
2024-01-06T04:45:28.469Z,2.15
2024-01-06T04:45:51.482Z,1.80
2024-01-06T04:46:13.117Z,1.73
2024-01-06T04:46:34.722Z,1.60
2024-01-06T04:46:56.367Z,1.92
2024-01-06T04:47:18.732Z,1.85
2024-01-06T04:47:40.310Z,1.67
2024-01-06T04:48:03.005Z,2.08
2024-01-06T04:48:24.917Z,2.13
2024-01-06T04:48:46.715Z,2.10
2024-01-06T04:49:08.511Z,1.95
2024-01-06T04:49:30.423Z,1.55
2024-01-06T04:49:52.201Z,1.38
2024-01-06T04:50:15.249Z,1.95
2024-01-06T04:50:40.318Z,2.10
2024-01-06T04:51:04.221Z,2.17
2024-01-06T04:51:25.893Z,2.50
2024-01-06T04:51:48.620Z,2.35
2024-01-06T04:52:10.449Z,1.92
2024-01-06T04:52:33.385Z,1.80
2024-01-06T04:52:55.045Z,1.70
2024-01-06T04:53:16.688Z,1.88
2024-01-06T04:53:39.881Z,1.98
2024-01-06T04:54:01.476Z,1.52
2024-01-06T04:54:23.095Z,2.30
2024-01-06T04:54:45.733Z,2.25
2024-01-06T04:55:07.995Z,2.00
2024-01-06T04:55:29.703Z,1.92
2024-01-06T04:55:51.382Z,2.00
2024-01-06T04:56:13.989Z,1.88
2024-01-06T04:56:36.804Z,1.75
2024-01-06T04:56:59.278Z,2.13
2024-01-06T04:57:21.765Z,2.17
2024-01-06T04:57:43.453Z,2.50
2024-01-06T04:58:05.087Z,2.60
2024-01-06T04:58:27.710Z,1.73
2024-01-06T04:58:49.339Z,1.85
2024-01-06T04:59:11.009Z,1.85
2024-01-06T04:59:32.622Z,2.00
2024-01-06T04:59:54.282Z,2.45
2024-01-06T05:00:16.225Z,2.00
2024-01-06T05:00:38.964Z,1.73
2024-01-06T05:01:00.713Z,2.35
2024-01-06T05:01:22.664Z,1.92
2024-01-06T05:01:44.382Z,1.50
2024-01-06T05:02:06.108Z,2.10
2024-01-06T05:02:27.899Z,1.90
2024-01-06T05:02:50.520Z,1.83
2024-01-06T05:03:12.249Z,2.17
2024-01-06T05:03:33.971Z,2.25
2024-01-06T05:03:55.724Z,1.90
2024-01-06T05:04:17.429Z,2.20
2024-01-06T05:04:39.073Z,2.10
2024-01-06T05:05:01.793Z,1.55
2024-01-06T05:05:23.576Z,2.25
2024-01-06T05:05:45.361Z,1.90
2024-01-06T05:06:07.162Z,2.03
2024-01-06T05:06:28.778Z,2.17
2024-01-06T05:06:53.222Z,2.05
2024-01-06T05:07:15.021Z,1.73
2024-01-06T05:07:36.654Z,2.55
2024-01-06T05:07:59.302Z,2.38
2024-01-06T05:08:21.139Z,2.05
2024-01-06T05:08:46.514Z,2.65
2024-01-06T05:09:08.265Z,1.73
2024-01-06T05:09:29.942Z,1.90
2024-01-06T05:09:51.734Z,1.55
2024-01-06T05:10:13.406Z,2.05
2024-01-06T05:10:35.048Z,1.83
2024-01-06T05:10:57.681Z,1.95
2024-01-06T05:11:19.438Z,1.98
2024-01-06T05:11:41.101Z,1.90
2024-01-06T05:12:02.725Z,1.88
2024-01-06T05:12:24.457Z,1.95
2024-01-06T05:12:47.191Z,2.42
2024-01-06T05:13:08.852Z,1.50
2024-01-06T05:13:30.458Z,1.83
2024-01-06T05:13:52.052Z,1.95
2024-01-06T05:14:13.681Z,1.98
2024-01-06T05:14:35.354Z,2.10
2024-01-06T05:14:57.938Z,2.17
2024-01-06T05:15:19.824Z,1.70
2024-01-06T05:15:41.483Z,1.73
2024-01-06T05:16:03.642Z,2.05
2024-01-06T05:16:25.282Z,1.42
2024-01-06T05:16:47.918Z,1.77
2024-01-06T05:17:10.124Z,2.08
2024-01-06T05:17:32.029Z,1.90
2024-01-06T05:17:53.891Z,1.95
2024-01-06T05:18:15.820Z,2.10
2024-01-06T05:18:38.670Z,2.07
2024-01-06T05:19:00.573Z,1.98
2024-01-06T05:19:22.892Z,2.10
2024-01-06T05:19:44.672Z,2.90
2024-01-06T05:20:07.765Z,2.20
2024-01-06T05:20:30.321Z,2.22
2024-01-06T05:20:51.953Z,2.25
2024-01-06T05:21:13.633Z,1.52